Time;durP1;ratioP1;P1;durP2;ratioP2;P2;SDS_P1;SDS_P2;PMS_P1;PMS_P2;Temp;Humidity;BMP_temperature;BMP_pressure;BME280_temperature;BME280_humidity;BME280_pressure;Samples;Min_cycle;Max_cycle;Signal;HPM_P1;HPM_P2
2023/02/19 00:00:30;;;;;;;3.53;3.23;;;9.80;99.90;;;;;;4924799;28;20229;-71
2023/02/19 00:02:56;;;;;;;5.50;4.00;;;9.80;99.90;;;;;;4926096;28;20306;-71
2023/02/19 00:05:23;;;;;;;3.30;3.00;;;9.80;99.90;;;;;;4932390;29;20235;-70
2023/02/19 00:07:48;;;;;;;4.60;3.40;;;9.80;99.90;;;;;;4926013;28;20522;-70
2023/02/19 00:10:14;;;;;;;6.70;3.53;;;9.80;99.90;;;;;;4932906;28;20463;-70
2023/02/19 00:12:40;;;;;;;4.67;3.77;;;9.80;99.90;;;;;;4928575;29;20605;-71
2023/02/19 00:15:06;;;;;;;6.47;3.97;;;9.80;99.90;;;;;;4926039;29;20224;-71
2023/02/19 00:17:31;;;;;;;4.30;3.37;;;9.80;99.90;;;;;;4926945;29;20231;-70
2023/02/19 00:19:57;;;;;;;3.03;2.70;;;9.80;99.90;;;;;;4928454;28;20463;-71
2023/02/19 00:22:23;;;;;;;4.60;3.60;;;9.80;99.90;;;;;;4929641;28;20223;-69
2023/02/19 00:24:48;;;;;;;4.10;3.70;;;9.80;99.90;;;;;;4925625;29;20294;-71
2023/02/19 00:27:14;;;;;;;5.50;3.50;;;9.80;99.90;;;;;;4927643;28;20314;-71
2023/02/19 00:29:40;;;;;;;5.77;3.93;;;9.80;99.90;;;;;;4944431;28;20290;-69
2023/02/19 00:32:06;;;;;;;7.73;4.03;;;9.80;99.90;;;;;;4929760;28;20487;-70
2023/02/19 00:34:31;;;;;;;5.37;3.73;;;9.80;99.90;;;;;;4937094;28;20231;-70
2023/02/19 00:36:57;;;;;;;4.20;3.30;;;9.80;99.90;;;;;;4945509;28;20625;-69
2023/02/19 00:39:23;;;;;;;5.87;3.90;;;9.80;99.90;;;;;;4923655;29;20571;-71
2023/02/19 00:41:49;;;;;;;4.43;3.43;;;9.80;99.90;;;;;;4922550;28;20245;-71
2023/02/19 00:44:15;;;;;;;3.63;3.33;;;9.80;99.90;;;;;;4914909;29;20649;-70
2023/02/19 00:46:43;;;;;;;3.63;3.30;;;9.80;99.90;;;;;;4928166;29;20502;-70
2023/02/19 00:49:14;;;;;;;4.67;3.40;;;9.80;99.90;;;;;;4928650;29;20318;-71
2023/02/19 00:51:40;;;;;;;4.90;4.00;;;9.80;99.90;;;;;;4920704;29;20483;-70
2023/02/19 00:54:06;;;;;;;3.30;3.00;;;9.90;99.90;;;;;;4932344;28;20473;-70
2023/02/19 00:56:32;;;;;;;3.20;2.87;;;9.90;99.90;;;;;;4920989;29;20238;-72
2023/02/19 00:58:58;;;;;;;3.00;2.70;;;9.80;99.90;;;;;;4930627;28;20268;-71
2023/02/19 01:01:24;;;;;;;3.47;2.80;;;9.90;99.90;;;;;;4921537;29;20464;-72
2023/02/19 01:03:50;;;;;;;3.60;3.10;;;9.80;99.90;;;;;;4927470;29;20223;-70
2023/02/19 01:06:18;;;;;;;3.67;3.20;;;9.80;99.90;;;;;;4926716;28;20505;-71
2023/02/19 01:08:44;;;;;;;3.70;2.53;;;9.80;99.90;;;;;;4943139;28;20315;-71
2023/02/19 01:11:10;;;;;;;4.23;2.80;;;9.80;99.90;;;;;;4944910;28;20476;-72
2023/02/19 01:13:37;;;;;;;4.37;3.20;;;9.80;99.90;;;;;;4928670;28;20435;-71
2023/02/19 01:16:03;;;;;;;11.33;3.40;;;9.80;99.90;;;;;;4928654;29;20493;-71
2023/02/19 01:18:30;;;;;;;3.10;2.70;;;9.80;99.90;;;;;;4943879;28;20494;-71
2023/02/19 01:20:56;;;;;;;3.63;3.00;;;9.80;99.90;;;;;;4907900;29;20464;-72
2023/02/19 01:23:21;;;;;;;3.47;2.83;;;9.80;99.90;;;;;;4916406;29;20475;-71
2023/02/19 01:25:47;;;;;;;2.97;2.70;;;9.80;99.90;;;;;;4940861;28;20224;-72
2023/02/19 01:28:13;;;;;;;3.10;2.70;;;9.90;99.90;;;;;;4919280;29;20322;-72
2023/02/19 01:30:38;;;;;;;2.60;2.40;;;9.90;99.90;;;;;;4946020;28;20646;-72
2023/02/19 01:33:05;;;;;;;2.33;2.13;;;9.80;99.90;;;;;;4945398;28;20302;-72
2023/02/19 01:35:32;;;;;;;2.97;2.63;;;9.90;99.90;;;;;;4941584;28;20232;-72
2023/02/19 01:37:58;;;;;;;2.70;2.40;;;9.90;99.90;;;;;;4925933;28;20459;-72
2023/02/19 01:40:23;;;;;;;3.10;2.50;;;9.80;99.90;;;;;;4911080;29;20514;-71
2023/02/19 01:42:49;;;;;;;3.17;2.20;;;9.80;99.90;;;;;;4924531;29;20479;-71
2023/02/19 01:45:18;;;;;;;3.43;2.40;;;9.80;99.90;;;;;;4910564;29;20694;-71
2023/02/19 01:47:46;;;;;;;3.10;2.57;;;9.80;99.90;;;;;;4944928;28;20593;-71
2023/02/19 01:50:12;;;;;;;2.30;2.10;;;9.80;99.90;;;;;;4946015;28;20467;-72
2023/02/19 01:52:38;;;;;;;4.60;2.83;;;9.80;99.90;;;;;;4942894;28;20515;-72
2023/02/19 01:55:06;;;;;;;3.40;2.53;;;9.80;99.90;;;;;;4912476;28;20463;-72
2023/02/19 01:57:38;;;;;;;3.27;2.43;;;9.80;99.90;;;;;;4941679;28;20220;-72
2023/02/19 02:00:15;;;;;;;2.43;2.23;;;9.80;99.90;;;;;;4923769;29;20452;-71
2023/02/19 02:02:44;;;;;;;2.40;2.20;;;9.80;99.90;;;;;;4939018;28;20499;-71
2023/02/19 02:05:24;;;;;;;2.20;2.00;;;9.80;99.90;;;;;;4935879;28;20550;-71
2023/02/19 02:10:33;;;;;;;2.57;2.37;;;9.80;99.90;;;;;;4925608;28;20542;-72
2023/02/19 02:13:00;;;;;;;2.00;1.90;;;9.80;99.90;;;;;;4924417;28;20473;-71
2023/02/19 02:15:43;;;;;;;2.90;2.60;;;9.90;99.90;;;;;;4921535;28;20463;-71
2023/02/19 02:18:47;;;;;;;2.00;1.90;;;9.90;99.90;;;;;;4925698;29;20698;-72
2023/02/19 02:21:34;;;;;;;2.67;2.17;;;9.80;99.90;;;;;;4924475;29;20562;-72
2023/02/19 02:24:18;;;;;;;2.50;2.20;;;9.90;99.90;;;;;;4949850;28;20475;-71
2023/02/19 02:27:12;;;;;;;2.57;2.37;;;9.80;99.90;;;;;;4948562;28;20482;-71
2023/02/19 02:30:09;;;;;;;2.43;2.23;;;9.90;99.90;;;;;;4922459;29;20472;-71
2023/02/19 02:32:52;;;;;;;2.20;1.97;;;9.90;99.90;;;;;;4925320;28;20464;-71
2023/02/19 02:35:21;;;;;;;2.33;2.13;;;9.90;99.90;;;;;;4912658;28;20431;-71
2023/02/19 02:37:49;;;;;;;2.30;2.10;;;9.90;99.90;;;;;;4927817;28;20452;-71
2023/02/19 02:40:16;;;;;;;2.00;1.83;;;9.90;99.90;;;;;;4943257;28;20446;-72
2023/02/19 02:42:43;;;;;;;2.23;2.03;;;9.90;99.90;;;;;;4927953;29;20559;-71
2023/02/19 02:45:35;;;;;;;2.87;1.87;;;9.90;99.90;;;;;;4931028;28;20434;-71
2023/02/19 02:48:27;;;;;;;2.20;2.00;;;9.90;99.90;;;;;;4919529;29;20466;-72
2023/02/19 02:51:09;;;;;;;1.50;1.40;;;9.90;99.90;;;;;;4918173;29;20514;-71
2023/02/19 02:56:29;;;;;;;2.30;2.10;;;9.80;99.90;;;;;;4913292;29;20459;-71
2023/02/19 02:58:57;;;;;;;1.70;1.60;;;9.80;99.90;;;;;;4924417;28;21043;-71
2023/02/19 03:04:34;;;;;;;5.23;2.13;;;9.90;99.90;;;;;;4922556;29;20522;-71
2023/02/19 03:07:06;;;;;;;1.80;1.70;;;9.80;99.90;;;;;;4940390;28;20500;-72
2023/02/19 03:09:41;;;;;;;2.33;2.07;;;9.80;99.90;;;;;;4907754;29;20471;-72
2023/02/19 03:20:48;;;;;;;1.50;1.40;;;9.70;99.90;;;;;;4924614;29;20459;-71
2023/02/19 03:23:16;;;;;;;1.30;1.20;;;9.70;99.90;;;;;;4922956;28;20502;-72
2023/02/19 03:31:28;;;;;;;1.63;1.50;;;9.70;99.90;;;;;;4919586;29;20450;-71
2023/02/19 03:34:00;;;;;;;1.20;1.10;;;9.70;99.90;;;;;;4911295;29;20460;-71
2023/02/19 03:36:53;;;;;;;1.83;1.70;;;9.70;99.90;;;;;;4914403;29;20451;-71
2023/02/19 03:39:21;;;;;;;1.93;1.70;;;9.70;99.90;;;;;;4922419;29;20456;-72
2023/02/19 03:42:10;;;;;;;1.67;1.57;;;9.70;99.90;;;;;;4943211;28;20873;-71
2023/02/19 03:44:36;;;;;;;1.70;1.60;;;9.70;99.90;;;;;;4958249;28;20936;-71
2023/02/19 03:47:12;;;;;;;2.00;1.80;;;9.70;99.90;;;;;;4929098;28;20463;-71
2023/02/19 03:49:45;;;;;;;2.20;1.50;;;9.70;99.90;;;;;;4940250;28;20313;-71
2023/02/19 03:52:15;;;;;;;1.70;1.60;;;9.70;99.90;;;;;;4924537;29;20472;-71
2023/02/19 03:55:02;;;;;;;1.60;1.50;;;9.70;99.90;;;;;;4929700;29;20515;-70
2023/02/19 03:57:50;;;;;;;2.70;1.93;;;9.70;99.90;;;;;;4920911;29;20455;-72
2023/02/19 04:00:39;;;;;;;1.73;1.50;;;9.80;99.90;;;;;;4906884;29;20449;-71
2023/02/19 04:03:18;;;;;;;1.53;1.43;;;9.70;99.90;;;;;;4908036;28;20467;-71
2023/02/19 04:05:48;;;;;;;1.50;1.40;;;9.70;99.90;;;;;;4937419;28;20459;-72
2023/02/19 04:08:18;;;;;;;1.60;1.50;;;9.70;99.90;;;;;;4923903;28;20566;-71
2023/02/19 04:10:50;;;;;;;1.57;1.40;;;9.70;99.90;;;;;;4912904;29;20474;-71
2023/02/19 04:13:31;;;;;;;1.97;1.27;;;9.70;99.90;;;;;;4943063;28;20477;-70
2023/02/19 04:16:02;;;;;;;1.53;1.43;;;9.70;99.90;;;;;;4928413;29;20459;-71
2023/02/19 04:18:31;;;;;;;1.40;1.00;;;9.70;99.90;;;;;;4910451;29;20463;-71
2023/02/19 04:20:58;;;;;;;0.90;0.90;;;9.70;99.90;;;;;;4931161;28;20519;-71
2023/02/19 04:23:27;;;;;;;1.30;1.20;;;9.70;99.90;;;;;;4919175;29;21095;-72
2023/02/19 04:25:56;;;;;;;1.23;1.13;;;9.70;99.90;;;;;;4913500;29;20456;-71
2023/02/19 04:28:22;;;;;;;1.00;0.90;;;9.60;99.90;;;;;;4913041;29;20470;-72
2023/02/19 04:30:48;;;;;;;1.63;1.47;;;9.60;99.90;;;;;;4918934;29;20495;-72
2023/02/19 04:33:13;;;;;;;1.10;1.00;;;9.60;99.90;;;;;;4926462;29;20599;-72
2023/02/19 04:35:39;;;;;;;1.17;1.07;;;9.60;99.90;;;;;;4926833;29;20219;-73
2023/02/19 04:38:05;;;;;;;1.27;1.17;;;9.60;99.90;;;;;;4946469;28;20306;-72
2023/02/19 04:40:30;;;;;;;1.10;1.00;;;9.60;99.90;;;;;;4926259;28;20308;-72
2023/02/19 04:42:56;;;;;;;1.40;1.30;;;9.60;99.90;;;;;;4929763;28;20232;-71
2023/02/19 04:45:22;;;;;;;1.43;1.07;;;9.60;99.90;;;;;;4925271;29;20231;-71
2023/02/19 04:47:47;;;;;;;1.33;1.20;;;9.60;99.90;;;;;;4930533;28;20216;-72
2023/02/19 04:50:13;;;;;;;1.10;1.00;;;9.60;99.90;;;;;;4922213;29;20223;-71
2023/02/19 04:52:39;;;;;;;1.40;1.30;;;9.70;99.90;;;;;;4951318;28;20224;-72
2023/02/19 04:55:05;;;;;;;2.03;1.33;;;9.60;99.90;;;;;;4935506;28;20250;-71
2023/02/19 04:57:31;;;;;;;0.70;0.70;;;9.60;99.90;;;;;;4930221;28;20572;-72
2023/02/19 04:59:56;;;;;;;2.40;1.27;;;9.60;99.90;;;;;;4922164;29;20478;-70
2023/02/19 05:02:22;;;;;;;0.90;0.90;;;9.60;99.90;;;;;;4930287;29;20231;-71
2023/02/19 05:04:48;;;;;;;1.13;1.03;;;9.60;99.90;;;;;;4933317;29;20218;-73
2023/02/19 05:07:14;;;;;;;1.20;0.97;;;9.60;99.90;;;;;;4929266;28;20211;-72
2023/02/19 05:09:39;;;;;;;0.73;0.50;;;9.60;99.90;;;;;;4921581;29;20231;-71
2023/02/19 05:12:05;;;;;;;0.70;0.70;;;9.60;99.90;;;;;;4927384;28;20490;-71
2023/02/19 05:14:31;;;;;;;2.10;1.00;;;9.60;99.90;;;;;;4927409;29;20219;-71
2023/02/19 05:16:56;;;;;;;1.80;0.77;;;9.60;99.90;;;;;;4922277;29;20308;-71
2023/02/19 05:19:22;;;;;;;1.30;1.00;;;9.50;99.90;;;;;;4927313;29;20237;-71
2023/02/19 05:21:48;;;;;;;0.70;0.70;;;9.50;99.90;;;;;;4930795;29;20645;-70
2023/02/19 05:24:13;;;;;;;1.07;0.97;;;9.50;99.90;;;;;;4913842;28;20219;-71
2023/02/19 05:26:39;;;;;;;0.97;0.80;;;9.50;99.90;;;;;;4956844;28;20306;-72
2023/02/19 05:29:05;;;;;;;0.67;0.67;;;9.60;99.90;;;;;;4921121;29;20251;-72
2023/02/19 05:31:32;;;;;;;1.40;0.93;;;9.60;99.90;;;;;;4920723;29;20247;-72
2023/02/19 05:33:58;;;;;;;0.90;0.90;;;9.50;99.90;;;;;;4929923;29;20219;-72
2023/02/19 05:36:24;;;;;;;0.60;0.60;;;9.50;99.90;;;;;;4927697;29;20475;-71
2023/02/19 05:38:55;;;;;;;1.20;0.87;;;9.50;99.90;;;;;;4924979;29;20875;-71
2023/02/19 05:41:27;;;;;;;0.80;0.80;;;9.50;99.90;;;;;;4947062;28;20744;-71
2023/02/19 05:43:53;;;;;;;0.63;0.63;;;9.50;99.90;;;;;;4927110;29;20494;-71
2023/02/19 05:46:22;;;;;;;0.90;0.70;;;9.50;99.90;;;;;;4954476;28;20483;-71
2023/02/19 05:48:49;;;;;;;1.10;0.60;;;9.50;99.90;;;;;;4926638;29;20507;-70
2023/02/19 05:51:18;;;;;;;0.70;0.70;;;9.50;99.90;;;;;;4932648;28;20471;-72
2023/02/19 05:53:44;;;;;;;2.03;0.70;;;9.50;99.90;;;;;;4907754;29;20480;-71
2023/02/19 05:56:25;;;;;;;2.10;0.97;;;9.50;99.90;;;;;;4922984;28;21000;-71
2023/02/19 05:58:51;;;;;;;1.33;0.60;;;9.50;99.90;;;;;;4918488;29;20547;-69
2023/02/19 06:01:19;;;;;;;9.13;0.87;;;9.50;99.90;;;;;;4907549;29;20458;-69
2023/02/19 06:03:45;;;;;;;0.70;0.70;;;9.50;99.90;;;;;;4915918;29;20462;-70
2023/02/19 06:06:15;;;;;;;2.20;0.60;;;9.50;99.90;;;;;;4949810;28;20978;-69
2023/02/19 06:08:41;;;;;;;0.60;0.60;;;9.50;99.90;;;;;;4929033;29;20254;-69
2023/02/19 06:11:07;;;;;;;2.93;1.00;;;9.50;99.90;;;;;;4921854;29;21006;-71
2023/02/19 06:13:32;;;;;;;0.70;0.70;;;9.40;99.90;;;;;;4930208;29;20231;-69
2023/02/19 06:15:58;;;;;;;0.80;0.70;;;9.50;99.90;;;;;;4907765;29;20459;-68
2023/02/19 06:18:24;;;;;;;0.50;0.50;;;9.40;99.90;;;;;;4910591;29;20263;-68
2023/02/19 06:20:49;;;;;;;0.90;0.70;;;9.50;99.90;;;;;;4940624;28;20231;-68
2023/02/19 06:23:15;;;;;;;0.70;0.60;;;9.50;99.90;;;;;;4927141;28;20239;-68
2023/02/19 06:25:41;;;;;;;0.87;0.83;;;9.50;99.90;;;;;;4927118;29;20228;-68
2023/02/19 06:28:08;;;;;;;1.17;0.80;;;9.50;99.90;;;;;;4924260;29;20228;-70
2023/02/19 06:30:34;;;;;;;2.77;0.93;;;9.50;99.90;;;;;;4927756;29;20234;-70
2023/02/19 06:33:00;;;;;;;6.20;1.30;;;9.50;99.90;;;;;;4934229;28;21063;-72
2023/02/19 06:35:26;;;;;;;1.73;1.13;;;9.50;99.90;;;;;;4922222;29;20459;-70
2023/02/19 06:37:51;;;;;;;2.30;1.10;;;9.50;99.90;;;;;;4914724;29;20228;-71
2023/02/19 06:40:17;;;;;;;1.47;0.80;;;9.50;99.90;;;;;;4943008;28;20223;-70
2023/02/19 06:42:43;;;;;;;0.80;0.77;;;9.50;99.90;;;;;;4925304;29;20303;-71
2023/02/19 06:45:08;;;;;;;1.70;1.07;;;9.50;99.90;;;;;;4925220;29;20226;-69
2023/02/19 06:47:34;;;;;;;1.97;0.83;;;9.50;99.90;;;;;;4926569;29;20254;-71
2023/02/19 06:50:00;;;;;;;1.73;1.10;;;9.50;99.90;;;;;;4934074;28;20234;-70
2023/02/19 06:52:26;;;;;;;0.83;0.83;;;9.50;99.90;;;;;;4933972;28;20220;-72
2023/02/19 06:54:52;;;;;;;0.80;0.70;;;9.50;99.90;;;;;;4918505;29;20376;-69
2023/02/19 06:57:18;;;;;;;1.90;0.80;;;9.50;99.90;;;;;;4921886;28;20443;-70
2023/02/19 06:59:45;;;;;;;0.73;0.73;;;9.40;99.90;;;;;;4944925;28;20475;-70
2023/02/19 07:02:11;;;;;;;1.10;0.97;;;9.50;99.90;;;;;;4899899;29;20475;-70
2023/02/19 07:04:37;;;;;;;0.77;0.73;;;9.50;99.90;;;;;;4926077;28;20470;-70
2023/02/19 07:07:04;;;;;;;1.30;1.00;;;9.50;99.90;;;;;;4951892;28;20467;-68
2023/02/19 07:09:30;;;;;;;2.30;0.97;;;9.50;99.90;;;;;;4922677;29;20722;-68
2023/02/19 07:11:55;;;;;;;2.87;0.90;;;9.50;99.90;;;;;;4921933;29;20567;-71
2023/02/19 07:14:21;;;;;;;1.27;1.00;;;9.50;99.90;;;;;;4921123;29;20219;-71
2023/02/19 07:16:47;;;;;;;1.10;1.00;;;9.50;99.90;;;;;;4908340;29;20223;-71
2023/02/19 07:19:13;;;;;;;3.60;1.37;;;9.60;99.90;;;;;;4924557;28;20235;-70
2023/02/19 07:21:41;;;;;;;1.00;0.90;;;9.60;99.90;;;;;;4926777;29;20246;-71
2023/02/19 07:24:08;;;;;;;1.20;1.00;;;9.60;99.90;;;;;;4924417;29;20478;-71
2023/02/19 07:26:34;;;;;;;2.33;1.40;;;9.60;99.90;;;;;;4928469;29;20518;-71
2023/02/19 07:29:00;;;;;;;2.60;1.20;;;9.60;99.90;;;;;;4927452;28;20483;-70
2023/02/19 07:31:27;;;;;;;1.00;0.90;;;9.60;99.90;;;;;;4911107;29;20682;-71
2023/02/19 07:33:54;;;;;;;0.83;0.80;;;9.60;99.90;;;;;;4921124;29;21163;-72
2023/02/19 07:36:22;;;;;;;1.47;0.90;;;9.60;99.90;;;;;;4924812;28;20953;-71
2023/02/19 07:38:54;;;;;;;2.30;1.10;;;9.60;99.90;;;;;;4919223;29;20486;-71
2023/02/19 07:41:20;;;;;;;1.23;1.10;;;9.60;99.90;;;;;;4937584;28;20503;-71
2023/02/19 07:43:46;;;;;;;1.10;1.00;;;9.60;99.90;;;;;;4922015;29;20906;-71
2023/02/19 07:46:13;;;;;;;3.97;1.60;;;9.60;99.90;;;;;;4915230;28;20526;-70
2023/02/19 07:48:40;;;;;;;2.10;1.47;;;9.60;99.90;;;;;;4942190;28;20235;-69
2023/02/19 07:51:09;;;;;;;1.90;1.70;;;9.60;99.90;;;;;;4930062;28;20492;-69
2023/02/19 07:53:35;;;;;;;2.13;1.40;;;9.60;99.90;;;;;;4929015;29;20459;-69
2023/02/19 07:56:04;;;;;;;2.57;1.70;;;9.60;99.90;;;;;;4921317;28;20475;-71
2023/02/19 07:58:30;;;;;;;1.97;1.60;;;9.60;99.90;;;;;;4921028;29;20462;-69
2023/02/19 08:00:56;;;;;;;1.43;1.33;;;9.70;99.90;;;;;;4926326;28;20464;-70
2023/02/19 08:03:22;;;;;;;4.07;1.73;;;9.80;99.90;;;;;;4924668;29;20452;-70
2023/02/19 08:05:50;;;;;;;2.03;1.43;;;9.80;99.90;;;;;;4923118;29;20223;-69
2023/02/19 08:08:16;;;;;;;2.03;0.90;;;9.80;99.90;;;;;;4904317;29;20248;-70
2023/02/19 08:13:29;;;;;;;1.20;1.03;;;9.90;99.90;;;;;;4922899;29;20482;-70
2023/02/19 08:15:54;;;;;;;2.43;1.50;;;9.90;99.90;;;;;;4927334;29;20518;-70
2023/02/19 08:18:22;;;;;;;3.00;1.40;;;10.00;99.90;;;;;;4934310;28;20453;-70
2023/02/19 08:20:49;;;;;;;6.00;2.53;;;10.00;99.90;;;;;;4922641;29;20232;-70
2023/02/19 08:23:15;;;;;;;3.63;2.93;;;10.00;99.90;;;;;;4928754;29;20534;-70
2023/02/19 08:25:41;;;;;;;3.60;2.77;;;10.00;99.90;;;;;;4930285;28;20483;-70
2023/02/19 08:28:09;;;;;;;3.77;3.47;;;10.00;99.90;;;;;;4945938;28;20538;-71
2023/02/19 08:30:37;;;;;;;5.43;3.40;;;10.00;99.90;;;;;;4943950;28;20475;-71
2023/02/19 08:33:05;;;;;;;7.70;5.80;;;10.00;99.90;;;;;;4911725;29;20466;-72
2023/02/19 08:35:31;;;;;;;5.50;3.73;;;10.10;99.90;;;;;;4924526;29;20451;-70
2023/02/19 08:37:57;;;;;;;4.80;3.50;;;10.10;99.90;;;;;;4924005;29;20467;-68
2023/02/19 08:40:23;;;;;;;10.40;3.60;;;10.10;99.90;;;;;;4915946;29;20223;-68
2023/02/19 08:42:49;;;;;;;8.80;4.20;;;10.10;99.90;;;;;;4929314;29;20474;-69
2023/02/19 08:45:15;;;;;;;4.00;3.40;;;10.10;99.90;;;;;;4921204;28;22007;-68
2023/02/19 08:47:41;;;;;;;2.97;2.30;;;10.10;99.90;;;;;;4934336;29;20232;-69
2023/02/19 08:50:07;;;;;;;11.33;4.80;;;10.10;99.90;;;;;;4946198;28;20258;-68
2023/02/19 08:52:33;;;;;;;5.30;3.00;;;10.10;99.90;;;;;;4930521;29;20223;-69
2023/02/19 08:54:59;;;;;;;2.03;1.87;;;10.10;99.90;;;;;;4920895;28;20483;-70
2023/02/19 08:57:25;;;;;;;2.27;1.87;;;10.20;99.90;;;;;;4924328;29;20467;-72
2023/02/19 08:59:51;;;;;;;2.13;1.50;;;10.20;99.90;;;;;;4928892;28;20227;-71
2023/02/19 09:02:17;;;;;;;1.43;1.33;;;10.30;99.90;;;;;;4923812;28;20471;-72
2023/02/19 09:04:42;;;;;;;2.53;1.40;;;10.30;99.90;;;;;;4926453;28;20219;-72
2023/02/19 09:07:11;;;;;;;3.47;1.60;;;10.30;99.90;;;;;;4922829;28;20231;-71
2023/02/19 09:09:37;;;;;;;3.60;1.30;;;10.30;99.90;;;;;;4921171;29;20258;-70
2023/02/19 09:12:10;;;;;;;2.27;1.50;;;10.30;99.90;;;;;;4930439;28;20487;-70
2023/02/19 09:14:37;;;;;;;2.93;2.17;;;10.30;99.90;;;;;;4931722;29;20294;-70
2023/02/19 09:17:04;;;;;;;2.07;1.87;;;10.30;99.90;;;;;;4926931;28;20518;-69
2023/02/19 09:19:31;;;;;;;7.50;3.93;;;10.40;99.90;;;;;;4932135;29;20569;-70
2023/02/19 09:21:57;;;;;;;2.73;2.53;;;10.40;99.90;;;;;;4923902;29;20506;-70
2023/02/19 09:24:23;;;;;;;3.67;2.90;;;10.40;99.90;;;;;;4922523;29;20495;-69
2023/02/19 09:26:50;;;;;;;4.07;2.70;;;10.40;99.90;;;;;;4910663;29;20227;-69
2023/02/19 09:29:16;;;;;;;2.07;1.97;;;10.40;99.90;;;;;;4926229;29;20470;-68
2023/02/19 09:31:42;;;;;;;1.90;1.37;;;10.50;99.90;;;;;;4924252;29;20496;-68
2023/02/19 09:34:08;;;;;;;3.80;1.67;;;10.50;99.90;;;;;;4943155;28;20509;-69
2023/02/19 09:36:34;;;;;;;3.20;2.63;;;10.50;99.90;;;;;;4928318;29;20235;-68
2023/02/19 09:39:00;;;;;;;8.33;3.10;;;10.50;99.90;;;;;;4925668;28;20236;-68
2023/02/19 09:41:46;;;;;;;12.60;10.47;;;10.60;99.90;;;;;;4929129;28;20226;-68
2023/02/19 09:44:23;;;;;;;21.00;16.90;;;10.70;99.90;;;;;;4903376;28;20906;-71
2023/02/19 09:46:52;;;;;;;14.80;11.20;;;10.80;99.90;;;;;;4911934;29;20457;-72
2023/02/19 09:49:21;;;;;;;10.60;8.00;;;10.90;99.90;;;;;;4906570;29;20474;-72
2023/02/19 09:51:56;;;;;;;8.30;5.67;;;10.90;99.90;;;;;;4917420;29;20484;-70
2023/02/19 09:54:28;;;;;;;8.50;5.40;;;11.00;99.90;;;;;;4921652;28;20466;-70
2023/02/19 09:56:56;;;;;;;6.60;3.77;;;11.10;99.90;;;;;;4923408;28;20475;-70
2023/02/19 09:59:39;;;;;;;2.30;2.10;;;11.00;99.90;;;;;;4942050;28;20463;-71
2023/02/19 10:02:20;;;;;;;1.73;1.43;;;11.00;99.90;;;;;;4919636;29;20478;-70
2023/02/19 10:04:48;;;;;;;2.13;1.57;;;11.10;99.90;;;;;;4924721;29;20489;-69
2023/02/19 10:07:16;;;;;;;2.60;1.20;;;11.10;99.90;;;;;;4924170;29;20467;-68
2023/02/19 10:09:47;;;;;;;3.87;2.40;;;11.00;99.90;;;;;;4907153;29;20530;-69
2023/02/19 10:12:17;;;;;;;2.30;1.80;;;11.00;99.90;;;;;;4908467;28;20586;-71
2023/02/19 10:14:48;;;;;;;2.90;1.67;;;11.00;99.90;;;;;;4923163;29;20471;-69
2023/02/19 10:17:23;;;;;;;3.17;1.60;;;11.00;99.90;;;;;;4932352;28;20478;-70
2023/02/19 10:19:50;;;;;;;2.20;1.63;;;11.00;99.90;;;;;;4921880;28;20476;-70
2023/02/19 10:22:17;;;;;;;1.23;1.13;;;11.10;99.90;;;;;;4925962;29;20449;-71
2023/02/19 10:24:43;;;;;;;3.10;1.53;;;11.10;99.90;;;;;;4920070;29;21077;-70
2023/02/19 10:27:12;;;;;;;1.37;1.23;;;11.10;99.90;;;;;;4910896;29;20475;-71
2023/02/19 10:29:38;;;;;;;1.33;1.23;;;11.20;99.90;;;;;;4920638;29;20474;-71
2023/02/19 10:32:24;;;;;;;2.43;1.50;;;11.20;99.90;;;;;;4928836;29;20484;-71
2023/02/19 10:35:10;;;;;;;3.30;1.93;;;11.30;99.90;;;;;;4924337;29;20319;-71
2023/02/19 10:37:45;;;;;;;5.23;1.97;;;11.30;99.90;;;;;;4928362;29;20507;-72
2023/02/19 10:40:32;;;;;;;1.43;1.30;;;11.30;99.90;;;;;;4941758;28;20580;-71
2023/02/19 10:43:03;;;;;;;1.40;1.30;;;11.40;99.90;;;;;;4911274;29;20478;-72
2023/02/19 10:45:46;;;;;;;1.77;1.40;;;11.40;99.90;;;;;;4919707;29;20991;-71
2023/02/19 10:48:30;;;;;;;3.67;1.40;;;11.40;99.90;;;;;;4926735;28;20479;-72
2023/02/19 10:51:03;;;;;;;3.37;1.73;;;11.40;99.90;;;;;;4920375;28;20989;-71
2023/02/19 10:54:02;;;;;;;2.77;1.53;;;11.40;99.90;;;;;;4937661;28;20460;-72
2023/02/19 10:56:30;;;;;;;3.23;2.10;;;11.40;99.90;;;;;;4926709;29;20482;-72
2023/02/19 10:59:26;;;;;;;1.67;1.53;;;11.40;99.90;;;;;;4930168;28;20515;-73
2023/02/19 11:01:59;;;;;;;2.07;1.70;;;11.40;99.90;;;;;;4926590;28;20482;-72
2023/02/19 11:04:28;;;;;;;2.00;1.60;;;11.40;99.90;;;;;;4921816;29;20929;-72
2023/02/19 11:06:56;;;;;;;3.73;1.80;;;11.30;99.90;;;;;;4921927;28;20474;-72
2023/02/19 11:09:26;;;;;;;1.70;1.30;;;11.30;99.90;;;;;;4924832;29;20969;-71
2023/02/19 11:11:54;;;;;;;12.93;4.27;;;11.20;99.90;;;;;;4923459;29;20476;-71
2023/02/19 11:14:22;;;;;;;8.00;3.00;;;11.20;99.90;;;;;;4953421;28;20446;-71
2023/02/19 11:16:57;;;;;;;4.67;2.90;;;11.10;99.90;;;;;;4911189;29;20482;-71
2023/02/19 11:19:43;;;;;;;5.17;3.40;;;11.20;99.90;;;;;;4922554;29;20498;-72
2023/02/19 11:22:36;;;;;;;15.70;8.87;;;11.30;99.90;;;;;;4923390;29;20477;-72
2023/02/19 11:25:13;;;;;;;12.00;8.00;;;11.30;99.90;;;;;;4932418;28;20477;-71
2023/02/19 11:28:05;;;;;;;10.97;6.53;;;11.40;99.90;;;;;;4927798;28;20467;-72
2023/02/19 11:30:37;;;;;;;4.93;3.70;;;11.60;99.90;;;;;;4918850;29;20522;-71
2023/02/19 11:33:32;;;;;;;6.50;2.20;;;11.70;99.90;;;;;;4924103;28;20474;-72
2023/02/19 11:36:26;;;;;;;3.40;2.50;;;11.90;99.90;;;;;;4919659;29;20459;-71
2023/02/19 11:38:54;;;;;;;2.00;1.80;;;12.00;99.90;;;;;;4918191;29;20467;-72
2023/02/19 11:41:57;;;;;;;2.10;1.90;;;12.10;99.90;;;;;;4927454;29;20470;-71
2023/02/19 11:44:29;;;;;;;3.70;2.20;;;12.10;99.90;;;;;;4929499;29;20447;-71
2023/02/19 11:47:20;;;;;;;4.60;2.23;;;12.20;99.90;;;;;;4944743;28;20543;-72
2023/02/19 11:50:05;;;;;;;2.43;2.30;;;12.30;99.90;;;;;;4950024;28;20472;-70
2023/02/19 11:52:40;;;;;;;2.30;2.10;;;12.20;99.90;;;;;;4916214;29;20482;-71
2023/02/19 11:55:20;;;;;;;2.40;1.67;;;12.20;99.90;;;;;;4930723;29;20474;-72
2023/02/19 11:58:22;;;;;;;4.83;1.50;;;12.30;99.90;;;;;;4919256;29;20456;-71
2023/02/19 12:01:29;;;;;;;4.27;1.90;;;12.20;99.90;;;;;;4917136;29;20466;-69
2023/02/19 12:04:14;;;;;;;7.90;2.27;;;12.30;99.90;;;;;;4924932;28;20487;-71
2023/02/19 12:06:42;;;;;;;2.13;2.00;;;12.20;99.90;;;;;;4917413;29;20452;-71
2023/02/19 12:09:20;;;;;;;3.23;2.20;;;12.10;99.90;;;;;;4929908;29;20459;-72
2023/02/19 12:12:28;;;;;;;3.03;1.67;;;12.10;99.90;;;;;;4945075;28;20487;-72
2023/02/19 12:15:18;;;;;;;7.17;2.90;;;12.10;99.90;;;;;;4916617;29;20466;-71
2023/02/19 12:18:03;;;;;;;20.37;13.47;;;12.00;99.90;;;;;;4938819;28;20482;-71
2023/02/19 12:20:49;;;;;;;11.07;9.70;;;12.00;99.90;;;;;;4944228;28;20474;-72
2023/02/19 12:23:25;;;;;;;7.40;5.00;;;12.00;99.90;;;;;;4943557;28;20947;-72
2023/02/19 12:26:18;;;;;;;6.73;4.17;;;12.00;99.90;;;;;;4924049;28;20480;-72
2023/02/19 12:28:55;;;;;;;5.10;3.53;;;12.00;99.90;;;;;;4930101;29;20465;-70
2023/02/19 12:31:54;;;;;;;5.83;2.47;;;12.00;99.90;;;;;;4922113;29;20464;-71
2023/02/19 12:34:28;;;;;;;3.57;1.90;;;12.10;99.90;;;;;;4925840;28;20874;-72
2023/02/19 12:36:56;;;;;;;3.83;2.30;;;12.10;99.90;;;;;;4927311;28;20559;-72
2023/02/19 12:39:56;;;;;;;3.00;2.40;;;12.10;99.90;;;;;;4926363;29;20495;-71
2023/02/19 12:42:50;;;;;;;3.00;2.30;;;12.20;99.90;;;;;;4924984;29;20553;-70
2023/02/19 12:45:30;;;;;;;5.77;3.73;;;12.20;99.90;;;;;;4928221;28;20467;-71
2023/02/19 12:48:19;;;;;;;5.27;3.20;;;12.10;99.90;;;;;;4924582;28;20475;-71
2023/02/19 12:50:49;;;;;;;4.70;2.47;;;12.10;99.90;;;;;;4946544;28;20479;-71
2023/02/19 12:53:29;;;;;;;2.20;1.40;;;12.10;99.90;;;;;;4923578;29;20523;-71
2023/02/19 12:55:57;;;;;;;1.90;1.60;;;12.00;99.90;;;;;;4911217;29;20459;-69
2023/02/19 12:58:46;;;;;;;3.20;1.53;;;12.00;99.90;;;;;;4907247;29;20463;-72
2023/02/19 13:01:19;;;;;;;1.50;1.40;;;12.00;99.90;;;;;;4927849;28;20467;-71
2023/02/19 13:03:52;;;;;;;2.17;1.40;;;12.00;99.90;;;;;;4932126;29;20478;-72
2023/02/19 13:06:40;;;;;;;2.30;1.67;;;12.00;99.90;;;;;;4929132;29;20459;-70
2023/02/19 13:09:13;;;;;;;1.80;1.57;;;12.00;99.90;;;;;;4941010;28;20472;-70
2023/02/19 13:11:59;;;;;;;6.70;2.27;;;12.00;99.90;;;;;;4941231;28;20498;-72
2023/02/19 13:14:47;;;;;;;2.20;1.70;;;11.90;99.90;;;;;;4918350;29;20467;-71
2023/02/19 13:17:42;;;;;;;2.07;1.87;;;11.90;99.90;;;;;;4927465;29;20789;-71
2023/02/19 13:20:29;;;;;;;1.67;1.40;;;11.90;99.90;;;;;;4931027;29;20482;-71
2023/02/19 13:26:08;;;;;;;3.23;1.10;;;11.80;99.90;;;;;;4852493;29;20463;-70
2023/02/19 13:28:40;;;;;;;5.27;1.70;;;11.80;99.90;;;;;;4924675;28;20499;-69
2023/02/19 13:31:34;;;;;;;2.13;1.10;;;11.80;99.90;;;;;;4927375;28;20471;-72
2023/02/19 13:34:02;;;;;;;4.13;1.50;;;12.00;99.90;;;;;;4922822;28;20551;-71
2023/02/19 13:36:29;;;;;;;2.60;1.80;;;12.10;99.90;;;;;;4947588;28;20520;-70
2023/02/19 13:38:56;;;;;;;3.00;1.53;;;12.30;99.90;;;;;;4926449;29;20477;-70
2023/02/19 13:41:40;;;;;;;1.90;1.70;;;12.50;99.90;;;;;;4928561;28;20546;-70
2023/02/19 13:44:15;;;;;;;1.30;1.20;;;12.60;99.90;;;;;;4919193;29;20526;-71